Terminal Aerodrome Forecast
Issued by NWS Milwaukee/Sullivan, WI

Home | Current Version | Previous Version | Text Only | Print | Product List | Glossary On
Versions: 1 2 3 4 5 6 7 8 9 10 11 12 13 14 15 16 17 18 19 20 21 22 23 24 25 26 27 28 29 30 31 32 33 34 35 36 37 38 39 40 41 42
000
FTUS43 KMKX 052017 AAB
TAFMKE
TAF AMD
KMKE 052017Z 0520/0624 13015KT P6SM FEW040 SCT250
     FM060000 16008KT P6SM FEW250
     FM060400 18004KT P6SM SCT250
     FM061200 18008KT P6SM FEW250
     FM061500 18012G19KT P6SM FEW250
     FM061800 19014G22KT P6SM SCT120 BKN250=

USA.gov is the U.S. government's official web portal to all federal, state and local government web resources and services.